Time;durP1;ratioP1;P1;durP2;ratioP2;P2;SDS_P1;SDS_P2;PMS_P1;PMS_P2;Temp;Humidity;BMP_temperature;BMP_pressure;BME280_temperature;BME280_humidity;BME280_pressure;Samples;Min_cycle;Max_cycle;Signal;HPM_P1;HPM_P2
2022/01/27 00:00:45;;;;;;;53.17;27.53;;;3.80;99.90;;;;;;2615627;54;20407;-83
2022/01/27 00:03:26;;;;;;;61.27;31.63;;;3.70;99.90;;;;;;2616030;47;20515;-83
2022/01/27 00:05:56;;;;;;;35.00;19.90;;;3.70;99.90;;;;;;2616446;54;20440;-83
2022/01/27 00:08:32;;;;;;;46.63;25.23;;;3.70;99.90;;;;;;2616276;47;21007;-83
2022/01/27 00:11:01;;;;;;;43.27;23.70;;;3.80;99.90;;;;;;2616221;54;21217;-82
2022/01/27 00:13:30;;;;;;;54.03;24.87;;;3.80;99.90;;;;;;2616128;47;20504;-83
2022/01/27 00:16:13;;;;;;;31.27;16.53;;;3.80;99.90;;;;;;2617026;54;20416;-82
2022/01/27 00:18:43;;;;;;;50.43;28.60;;;3.70;99.90;;;;;;2617275;54;20392;-82
2022/01/27 00:21:09;;;;;;;49.27;25.57;;;3.70;99.90;;;;;;2616153;54;20995;-83
2022/01/27 00:23:36;;;;;;;25.43;15.80;;;3.70;99.90;;;;;;2615531;54;20423;-83
2022/01/27 00:26:02;;;;;;;40.00;22.10;;;3.70;99.90;;;;;;2616427;54;20411;-82
2022/01/27 00:28:30;;;;;;;52.87;21.60;;;3.70;99.90;;;;;;2617558;39;20799;-83
2022/01/27 00:30:56;;;;;;;46.80;28.00;;;3.70;99.90;;;;;;2616945;47;20999;-83
2022/01/27 00:33:22;;;;;;;35.33;21.40;;;3.70;99.90;;;;;;2617505;54;20419;-82
2022/01/27 00:35:48;;;;;;;29.77;16.13;;;3.70;99.90;;;;;;2616773;54;20189;-82
2022/01/27 00:38:14;;;;;;;43.10;19.20;;;3.70;99.90;;;;;;2615714;47;20423;-82
2022/01/27 00:40:40;;;;;;;40.07;21.00;;;3.70;99.90;;;;;;2616649;54;20427;-83
2022/01/27 00:43:06;;;;;;;33.90;19.07;;;3.60;99.90;;;;;;2616049;54;21010;-82
2022/01/27 00:45:33;;;;;;;27.27;16.40;;;3.60;99.90;;;;;;2618061;39;21117;-83
2022/01/27 00:48:02;;;;;;;37.67;21.57;;;3.60;99.90;;;;;;2615812;54;20147;-83
2022/01/27 00:50:31;;;;;;;36.53;20.63;;;3.60;99.90;;;;;;2616532;54;20419;-84
2022/01/27 00:53:00;;;;;;;46.03;24.50;;;3.70;99.90;;;;;;2615431;54;20404;-83
2022/01/27 00:55:32;;;;;;;36.73;19.40;;;3.60;99.90;;;;;;2616849;47;20427;-82
2022/01/27 01:00:51;;;;;;;46.77;21.30;;;3.60;99.90;;;;;;2615299;47;20495;-84
2022/01/27 01:03:54;;;;;;;33.77;18.60;;;3.60;99.90;;;;;;2617318;54;20426;-83
2022/01/27 01:35:05;;;;;;;29.17;18.90;;;3.60;99.90;;;;;;2617330;54;20415;-82
2022/01/27 01:37:37;;;;;;;26.57;17.10;;;3.60;99.90;;;;;;2617276;54;20394;-83
2022/01/27 01:40:13;;;;;;;26.40;17.60;;;3.60;99.90;;;;;;2614851;54;20404;-81
2022/01/27 01:42:39;;;;;;;28.80;15.03;;;3.60;99.90;;;;;;2614642;54;20499;-81
2022/01/27 01:45:09;;;;;;;41.50;24.07;;;3.60;99.90;;;;;;2616125;54;20391;-83
2022/01/27 01:47:36;;;;;;;33.27;17.40;;;3.70;99.90;;;;;;2617238;54;20975;-83
2022/01/27 01:50:04;;;;;;;41.80;24.43;;;3.70;99.90;;;;;;2616802;46;20414;-82
2022/01/27 01:52:29;;;;;;;37.53;21.90;;;3.60;99.90;;;;;;2616684;47;20416;-82
2022/01/27 01:54:56;;;;;;;30.67;17.43;;;3.60;99.90;;;;;;2616589;47;21067;-83
2022/01/27 01:57:22;;;;;;;43.00;21.23;;;3.60;99.90;;;;;;2616815;54;20158;-82
2022/01/27 01:59:48;;;;;;;41.80;25.20;;;3.60;99.90;;;;;;2616852;54;20984;-81
2022/01/27 02:02:14;;;;;;;49.20;29.63;;;3.60;99.90;;;;;;2613809;47;20416;-82
2022/01/27 02:04:40;;;;;;;41.57;23.17;;;3.50;99.90;;;;;;2617336;54;20659;-82
2022/01/27 02:07:16;;;;;;;49.77;23.73;;;3.50;99.90;;;;;;2616040;54;20429;-83
2022/01/27 02:18:08;;;;;;;37.17;20.87;;;3.50;99.90;;;;;;2614746;47;20435;-82
2022/01/27 02:20:36;;;;;;;37.27;21.30;;;3.50;99.90;;;;;;2616507;54;20406;-84
2022/01/27 02:23:07;;;;;;;30.57;17.30;;;3.50;99.90;;;;;;2615596;54;20409;-83
2022/01/27 02:25:35;;;;;;;45.13;22.80;;;3.50;99.90;;;;;;2616348;54;20416;-81
2022/01/27 02:28:03;;;;;;;34.03;18.83;;;3.50;99.90;;;;;;2616119;47;21146;-84
2022/01/27 02:30:29;;;;;;;43.10;20.43;;;3.50;99.90;;;;;;2614851;47;21006;-81
2022/01/27 02:32:55;;;;;;;30.33;18.07;;;3.60;99.90;;;;;;2614307;51;20475;-83
2022/01/27 02:35:24;;;;;;;44.63;20.40;;;3.60;99.90;;;;;;2614775;54;20158;-82
2022/01/27 02:37:50;;;;;;;32.80;17.83;;;3.50;99.90;;;;;;2615018;54;21047;-80
2022/01/27 02:40:25;;;;;;;40.97;20.37;;;3.50;99.90;;;;;;2616157;54;20387;-82
2022/01/27 02:42:50;;;;;;;40.17;15.20;;;3.50;99.90;;;;;;2614398;47;20977;-83
2022/01/27 02:45:54;;;;;;;42.30;21.00;;;3.60;99.90;;;;;;2614568;54;20423;-81
2022/01/27 02:48:20;;;;;;;34.00;18.23;;;3.60;99.90;;;;;;2614910;54;20788;-81
2022/01/27 02:50:46;;;;;;;27.20;15.10;;;3.60;99.90;;;;;;2615987;54;20385;-82
2022/01/27 02:53:11;;;;;;;37.43;22.07;;;3.60;99.90;;;;;;2616434;47;20511;-83
2022/01/27 02:55:37;;;;;;;32.97;19.33;;;3.60;99.90;;;;;;2613975;54;20647;-82
2022/01/27 02:58:04;;;;;;;28.50;17.20;;;3.60;99.90;;;;;;2613212;47;20163;-83
2022/01/27 03:00:31;;;;;;;43.20;24.47;;;3.60;99.90;;;;;;2615374;39;20806;-80
2022/01/27 03:02:57;;;;;;;29.03;16.47;;;3.70;99.90;;;;;;2615829;54;20507;-81
2022/01/27 03:05:23;;;;;;;32.87;16.07;;;3.60;99.90;;;;;;2616009;39;20823;-83
2022/01/27 03:07:50;;;;;;;43.67;21.30;;;3.60;99.90;;;;;;2617099;46;20173;-83
2022/01/27 03:10:17;;;;;;;32.93;20.33;;;3.60;99.90;;;;;;2616713;54;20530;-83
2022/01/27 03:12:44;;;;;;;38.63;21.57;;;3.60;99.90;;;;;;2616865;31;20841;-81
2022/01/27 03:15:11;;;;;;;43.30;24.90;;;3.60;99.90;;;;;;2616094;54;20982;-83
2022/01/27 03:17:38;;;;;;;24.03;15.23;;;3.60;99.90;;;;;;2615905;54;20411;-82
2022/01/27 03:20:05;;;;;;;38.30;21.83;;;3.60;99.90;;;;;;2615320;54;20494;-82
2022/01/27 03:22:31;;;;;;;33.67;20.80;;;3.70;99.90;;;;;;2617652;54;21060;-83
2022/01/27 03:24:58;;;;;;;38.00;23.90;;;3.70;99.90;;;;;;2616748;47;20443;-84
2022/01/27 03:27:26;;;;;;;39.93;22.63;;;3.70;99.90;;;;;;2616529;47;20165;-82
2022/01/27 03:29:52;;;;;;;42.43;20.90;;;3.70;99.90;;;;;;2615932;47;20450;-83
2022/01/27 03:32:19;;;;;;;28.03;16.77;;;3.80;99.90;;;;;;2617335;47;20404;-81
2022/01/27 03:34:45;;;;;;;34.47;20.07;;;3.70;99.90;;;;;;2616978;47;20412;-81
2022/01/27 03:37:12;;;;;;;41.00;23.33;;;3.70;99.90;;;;;;2615467;47;20431;-83
2022/01/27 03:39:40;;;;;;;27.30;14.53;;;3.80;99.90;;;;;;2616097;39;20834;-82
2022/01/27 03:42:07;;;;;;;37.37;22.30;;;3.80;99.90;;;;;;2614987;47;20403;-80
2022/01/27 03:44:33;;;;;;;35.03;21.87;;;3.80;99.90;;;;;;2615491;54;20416;-81
2022/01/27 03:47:00;;;;;;;37.90;22.63;;;3.80;99.90;;;;;;2615685;54;20415;-82
2022/01/27 03:49:26;;;;;;;24.77;15.63;;;3.80;99.90;;;;;;2615884;54;20416;-83
2022/01/27 03:51:52;;;;;;;30.03;16.70;;;3.80;99.90;;;;;;2615893;54;20990;-83
2022/01/27 03:54:18;;;;;;;34.83;20.30;;;3.80;99.90;;;;;;2616440;54;20386;-85
2022/01/27 03:56:45;;;;;;;35.57;19.27;;;3.80;99.90;;;;;;2616353;46;20449;-82
2022/01/27 03:59:12;;;;;;;43.27;21.57;;;3.80;99.90;;;;;;2616102;47;21519;-83
2022/01/27 04:01:39;;;;;;;28.63;20.17;;;3.90;99.90;;;;;;2615497;54;20403;-82
2022/01/27 04:04:05;;;;;;;38.63;18.27;;;3.90;99.90;;;;;;2616074;54;20419;-82
2022/01/27 04:06:34;;;;;;;38.83;24.70;;;3.80;99.90;;;;;;2615812;47;20987;-83
2022/01/27 04:09:02;;;;;;;27.13;16.37;;;3.90;99.90;;;;;;2616632;47;20162;-84
2022/01/27 04:11:28;;;;;;;27.03;16.53;;;3.90;99.90;;;;;;2615765;54;20424;-82
2022/01/27 04:13:54;;;;;;;37.83;19.33;;;3.80;99.90;;;;;;2614091;47;20462;-83
2022/01/27 04:16:20;;;;;;;33.83;19.07;;;3.90;99.90;;;;;;2615373;39;20817;-83
2022/01/27 04:18:46;;;;;;;33.13;17.93;;;3.80;99.90;;;;;;2616086;47;20967;-82
2022/01/27 04:21:13;;;;;;;34.40;21.10;;;3.80;99.90;;;;;;2615776;54;20149;-83
2022/01/27 04:23:39;;;;;;;33.93;20.77;;;3.90;99.90;;;;;;2614736;54;20470;-82
2022/01/27 04:26:05;;;;;;;37.37;22.83;;;3.90;99.90;;;;;;2615735;39;20858;-82
2022/01/27 04:28:34;;;;;;;44.23;20.90;;;3.80;99.90;;;;;;2616706;54;20924;-84
2022/01/27 04:31:03;;;;;;;34.60;20.93;;;3.80;99.90;;;;;;2616164;46;20404;-83
2022/01/27 04:33:32;;;;;;;34.40;19.80;;;3.90;99.90;;;;;;2615876;54;20412;-80
2022/01/27 04:36:01;;;;;;;31.37;20.03;;;3.80;99.90;;;;;;2616746;54;20391;-82
2022/01/27 04:38:34;;;;;;;82.30;16.00;;;3.90;99.90;;;;;;2614891;47;20416;-81
2022/01/27 04:43:37;;;;;;;25.73;14.27;;;3.90;99.90;;;;;;2615303;54;20507;-84
2022/01/27 04:48:35;;;;;;;32.77;18.13;;;3.90;99.90;;;;;;2613775;54;20418;-82
2022/01/27 04:51:06;;;;;;;36.30;17.63;;;3.90;99.90;;;;;;2615385;54;20150;-83
2022/01/27 04:53:35;;;;;;;34.87;16.37;;;3.90;99.90;;;;;;2615252;54;20434;-83
2022/01/27 04:56:01;;;;;;;24.17;15.23;;;4.00;99.90;;;;;;2614412;47;20394;-82
2022/01/27 04:58:33;;;;;;;27.37;18.00;;;3.90;99.90;;;;;;2617409;51;20407;-80
2022/01/27 05:01:02;;;;;;;30.67;16.83;;;4.00;99.90;;;;;;2615922;31;20644;-83
2022/01/27 05:05:57;;;;;;;30.33;16.70;;;4.10;99.90;;;;;;2614490;47;20410;-81
2022/01/27 05:08:23;;;;;;;29.63;16.40;;;4.10;99.90;;;;;;2615058;47;20521;-83
2022/01/27 05:11:26;;;;;;;43.27;19.50;;;4.10;99.90;;;;;;2615463;54;20155;-80
2022/01/27 05:13:50;;;;;;;36.40;20.23;;;4.10;99.90;;;;;;2614939;47;20419;-82
2022/01/27 05:16:16;;;;;;;25.73;16.00;;;4.10;99.90;;;;;;2614120;54;20441;-83
2022/01/27 05:18:42;;;;;;;37.27;18.70;;;4.20;99.90;;;;;;2615768;47;20419;-83
2022/01/27 05:21:09;;;;;;;38.23;22.20;;;4.20;99.90;;;;;;2615619;46;20450;-83
2022/01/27 05:23:35;;;;;;;35.00;22.00;;;4.10;99.90;;;;;;2614904;39;20806;-84
2022/01/27 05:26:04;;;;;;;30.40;17.33;;;4.20;99.90;;;;;;2614749;54;20403;-83
2022/01/27 05:28:29;;;;;;;38.27;19.33;;;4.20;99.90;;;;;;2616054;54;20749;-82
2022/01/27 05:30:56;;;;;;;29.10;15.50;;;4.20;99.90;;;;;;2615739;54;20415;-82
2022/01/27 05:33:23;;;;;;;42.40;19.57;;;4.10;99.90;;;;;;2616204;39;22018;-84
2022/01/27 05:35:49;;;;;;;27.40;16.93;;;4.30;99.90;;;;;;2615107;47;20436;-80
2022/01/27 05:38:16;;;;;;;32.70;18.23;;;4.30;99.90;;;;;;2615579;54;20456;-82
2022/01/27 05:40:44;;;;;;;28.13;18.17;;;4.30;99.90;;;;;;2616640;39;20778;-83
2022/01/27 05:43:11;;;;;;;38.10;20.43;;;4.20;99.90;;;;;;2616120;39;20834;-81
2022/01/27 05:45:38;;;;;;;33.67;19.27;;;4.20;99.90;;;;;;2613735;39;20967;-81
2022/01/27 05:48:04;;;;;;;41.67;20.77;;;4.20;99.90;;;;;;2614459;31;20850;-85
2022/01/27 05:50:30;;;;;;;34.80;19.30;;;4.30;99.90;;;;;;2613654;54;20979;-82
2022/01/27 05:52:55;;;;;;;30.60;19.80;;;4.30;99.90;;;;;;2614720;46;20451;-81
2022/01/27 05:55:21;;;;;;;34.33;18.87;;;4.40;99.90;;;;;;2618051;31;20871;-81
2022/01/27 05:57:47;;;;;;;35.93;19.83;;;4.40;99.90;;;;;;2615177;54;20231;-84
2022/01/27 06:00:13;;;;;;;30.47;15.27;;;4.40;99.90;;;;;;2615830;54;21011;-82
2022/01/27 06:02:41;;;;;;;29.93;17.03;;;4.40;99.90;;;;;;2614738;47;20165;-83
2022/01/27 06:05:09;;;;;;;27.47;16.60;;;4.40;99.90;;;;;;2615536;47;20567;-83
2022/01/27 06:07:35;;;;;;;29.30;17.53;;;4.50;99.90;;;;;;2617284;54;20974;-82
2022/01/27 06:10:02;;;;;;;31.43;16.83;;;4.40;99.90;;;;;;2616318;54;20400;-82
2022/01/27 06:12:28;;;;;;;27.80;16.10;;;4.40;99.90;;;;;;2615292;54;20266;-83
2022/01/27 06:14:54;;;;;;;20.30;14.00;;;4.40;99.90;;;;;;2614755;54;20462;-82
2022/01/27 06:17:21;;;;;;;36.53;20.30;;;4.50;99.90;;;;;;2614833;54;20163;-83
2022/01/27 06:19:47;;;;;;;24.47;13.73;;;4.60;99.90;;;;;;2615577;54;20679;-82
2022/01/27 06:22:14;;;;;;;25.90;14.70;;;4.60;99.90;;;;;;2615846;47;20492;-82
2022/01/27 06:24:44;;;;;;;30.00;18.00;;;4.50;99.90;;;;;;2615014;54;20518;-80
2022/01/27 06:27:11;;;;;;;29.37;19.20;;;4.50;99.90;;;;;;2615009;47;20447;-81
2022/01/27 06:29:38;;;;;;;28.73;18.00;;;4.50;99.90;;;;;;2615470;47;20976;-81
2022/01/27 06:32:06;;;;;;;43.63;23.50;;;4.50;99.90;;;;;;2615217;46;21051;-83
2022/01/27 06:34:33;;;;;;;32.60;17.97;;;4.50;99.90;;;;;;2616238;54;20408;-82
2022/01/27 06:36:58;;;;;;;47.87;22.63;;;4.50;99.90;;;;;;2614584;54;20418;-83
2022/01/27 06:39:24;;;;;;;26.60;13.77;;;4.50;99.90;;;;;;2615661;39;21017;-82
2022/01/27 06:41:50;;;;;;;34.13;18.33;;;4.60;99.90;;;;;;2615501;51;20182;-81
2022/01/27 06:44:16;;;;;;;35.83;19.60;;;4.60;99.90;;;;;;2614107;39;20582;-85
2022/01/27 06:46:42;;;;;;;25.80;16.60;;;4.60;99.90;;;;;;2613833;47;20463;-80
2022/01/27 06:49:14;;;;;;;23.70;15.20;;;4.70;99.90;;;;;;2614057;47;20262;-81
2022/01/27 06:51:40;;;;;;;24.37;17.77;;;4.70;99.90;;;;;;2615922;54;20266;-81
2022/01/27 06:54:05;;;;;;;24.63;15.57;;;4.80;99.90;;;;;;2615832;54;20948;-84
2022/01/27 06:56:31;;;;;;;24.00;15.43;;;4.80;99.90;;;;;;2616173;54;20155;-83
2022/01/27 06:58:57;;;;;;;36.00;22.73;;;4.90;99.90;;;;;;2616216;47;20159;-82
2022/01/27 07:01:23;;;;;;;21.13;13.87;;;4.90;99.90;;;;;;2617069;54;20426;-83
2022/01/27 07:03:49;;;;;;;32.07;18.30;;;5.00;99.90;;;;;;2617835;47;20197;-82
2022/01/27 07:06:15;;;;;;;25.53;14.53;;;5.00;99.90;;;;;;2617416;47;20250;-84
2022/01/27 07:08:41;;;;;;;22.87;13.43;;;5.20;99.90;;;;;;2617411;39;20924;-84
2022/01/27 07:11:07;;;;;;;26.53;15.23;;;5.20;99.90;;;;;;2618088;54;20392;-83
2022/01/27 07:13:32;;;;;;;22.77;14.60;;;5.20;99.90;;;;;;2618301;39;20694;-84
2022/01/27 07:15:59;;;;;;;30.90;17.20;;;5.30;99.90;;;;;;2616402;47;20177;-84
2022/01/27 07:18:26;;;;;;;28.03;16.20;;;5.30;99.90;;;;;;2613564;47;20496;-81
2022/01/27 07:20:52;;;;;;;34.03;19.97;;;5.40;99.90;;;;;;2615898;54;20418;-85
2022/01/27 07:23:20;;;;;;;22.93;13.97;;;5.50;99.90;;;;;;2615948;54;20396;-84
2022/01/27 07:25:46;;;;;;;21.27;12.30;;;5.50;99.90;;;;;;2615109;54;20206;-80
2022/01/27 07:28:12;;;;;;;27.93;17.77;;;5.40;99.90;;;;;;2613344;51;20423;-82
2022/01/27 07:30:38;;;;;;;22.13;14.67;;;5.40;99.90;;;;;;2614839;47;20428;-84
2022/01/27 07:33:04;;;;;;;27.57;17.00;;;5.40;99.90;;;;;;2614079;46;20996;-81
2022/01/27 07:35:30;;;;;;;28.43;18.13;;;5.50;99.90;;;;;;2613424;46;20301;-83
2022/01/27 07:37:56;;;;;;;26.27;14.90;;;5.50;99.90;;;;;;2613051;54;20242;-82
2022/01/27 07:40:22;;;;;;;32.83;17.60;;;5.40;99.90;;;;;;2616347;54;20411;-82
2022/01/27 07:42:49;;;;;;;23.97;13.43;;;5.40;99.90;;;;;;2619382;47;20802;-82
2022/01/27 07:45:16;;;;;;;26.33;15.27;;;5.40;99.90;;;;;;2612903;47;20434;-84
2022/01/27 07:47:41;;;;;;;29.37;17.70;;;5.30;99.90;;;;;;2615387;46;20408;-83
2022/01/27 07:50:08;;;;;;;32.53;16.20;;;5.40;99.90;;;;;;2616113;47;20167;-82
2022/01/27 07:52:34;;;;;;;19.80;13.50;;;5.40;99.90;;;;;;2615765;47;20158;-82
2022/01/27 07:54:59;;;;;;;26.30;15.57;;;5.40;99.90;;;;;;2616307;47;20407;-82
2022/01/27 07:57:25;;;;;;;24.33;15.00;;;5.40;99.90;;;;;;2617814;47;20403;-83
2022/01/27 07:59:51;;;;;;;26.60;14.67;;;5.40;99.90;;;;;;2618046;54;20172;-82
2022/01/27 08:02:17;;;;;;;37.57;18.70;;;5.40;99.90;;;;;;2616938;47;20848;-83
2022/01/27 08:04:43;;;;;;;39.33;20.27;;;5.40;99.90;;;;;;2615867;47;20409;-83
2022/01/27 08:07:10;;;;;;;31.20;17.13;;;5.30;99.90;;;;;;2618044;54;20931;-82
2022/01/27 08:09:36;;;;;;;30.50;19.27;;;5.30;99.90;;;;;;2616994;54;20151;-81
2022/01/27 08:12:03;;;;;;;28.87;18.23;;;5.20;99.90;;;;;;2616016;47;20535;-82
2022/01/27 08:14:28;;;;;;;43.47;21.03;;;5.20;99.90;;;;;;2615150;54;20447;-82
2022/01/27 08:16:54;;;;;;;34.70;25.60;;;5.10;99.90;;;;;;2615633;54;20412;-81
2022/01/27 08:19:21;;;;;;;33.00;24.80;;;5.00;99.90;;;;;;2616088;54;20392;-83
2022/01/27 08:21:48;;;;;;;36.10;24.43;;;5.00;99.90;;;;;;2616839;46;20221;-82
2022/01/27 08:24:15;;;;;;;44.33;25.30;;;5.00;99.90;;;;;;2616810;47;20402;-81
2022/01/27 08:26:45;;;;;;;37.83;24.27;;;5.00;99.90;;;;;;2615968;54;20417;-81
2022/01/27 08:34:29;;;;;;;36.33;23.93;;;5.00;99.90;;;;;;2616769;47;20406;-81
2022/01/27 08:36:55;;;;;;;38.77;23.80;;;5.00;99.90;;;;;;2617684;39;20790;-80
2022/01/27 08:39:22;;;;;;;36.80;23.23;;;5.00;99.90;;;;;;2617637;47;20412;-83
2022/01/27 08:41:48;;;;;;;44.20;21.90;;;5.00;99.90;;;;;;2617506;54;20416;-79
2022/01/27 08:44:14;;;;;;;43.43;21.60;;;5.00;99.90;;;;;;2617160;54;20450;-81
2022/01/27 08:47:04;;;;;;;31.40;20.47;;;5.10;99.90;;;;;;2617417;47;20166;-82
2022/01/27 08:49:31;;;;;;;35.00;19.07;;;5.10;99.90;;;;;;2616858;47;20404;-81
2022/01/27 08:51:57;;;;;;;37.70;21.63;;;5.10;99.90;;;;;;2616714;46;20412;-81
2022/01/27 08:54:24;;;;;;;39.20;28.07;;;5.20;99.90;;;;;;2616807;47;20394;-81
2022/01/27 08:56:51;;;;;;;42.07;24.10;;;5.20;99.90;;;;;;2617074;54;20404;-81
2022/01/27 08:59:18;;;;;;;29.97;20.07;;;5.20;99.90;;;;;;2616928;54;20424;-82
2022/01/27 09:01:45;;;;;;;49.80;27.20;;;5.20;99.90;;;;;;2616668;47;20979;-81
2022/01/27 09:04:11;;;;;;;40.87;21.57;;;5.20;99.90;;;;;;2616998;54;20423;-81
2022/01/27 09:06:38;;;;;;;34.70;20.20;;;5.30;99.90;;;;;;2616959;54;20428;-82
2022/01/27 09:09:05;;;;;;;45.20;27.40;;;5.20;99.90;;;;;;2616942;47;20889;-80
2022/01/27 09:11:32;;;;;;;38.37;21.70;;;5.30;99.90;;;;;;2615111;54;20399;-80
2022/01/27 09:14:00;;;;;;;44.77;23.07;;;5.30;99.90;;;;;;2615382;54;20480;-81
2022/01/27 09:16:28;;;;;;;36.23;20.90;;;5.30;99.90;;;;;;2616578;39;20857;-82
2022/01/27 09:18:56;;;;;;;31.63;19.70;;;5.30;99.90;;;;;;2616845;47;20982;-80
2022/01/27 09:21:32;;;;;;;32.77;16.77;;;5.30;99.90;;;;;;2616783;47;20394;-80
2022/01/27 09:23:58;;;;;;;36.70;20.93;;;5.30;99.90;;;;;;2616444;54;20412;-80
2022/01/27 09:26:41;;;;;;;42.50;24.53;;;5.30;99.90;;;;;;2616473;39;20835;-81
2022/01/27 09:29:08;;;;;;;23.73;14.23;;;5.40;99.90;;;;;;2615842;47;20154;-82
2022/01/27 09:31:35;;;;;;;48.67;26.00;;;5.30;99.90;;;;;;2616580;54;20408;-80
2022/01/27 09:34:01;;;;;;;42.63;25.23;;;5.40;99.90;;;;;;2616271;47;20491;-81
2022/01/27 09:36:27;;;;;;;27.20;13.77;;;5.40;99.90;;;;;;2617293;47;20935;-80
2022/01/27 09:38:53;;;;;;;32.40;18.13;;;5.40;99.90;;;;;;2616881;54;20434;-80
2022/01/27 09:41:20;;;;;;;39.13;20.90;;;5.50;99.90;;;;;;2613441;47;20174;-79
2022/01/27 09:43:54;;;;;;;29.87;17.57;;;5.50;99.90;;;;;;2612788;47;21174;-81
2022/01/27 09:46:24;;;;;;;31.60;15.50;;;5.50;99.90;;;;;;2612018;54;21069;-79
2022/01/27 09:48:51;;;;;;;28.17;17.97;;;5.50;99.90;;;;;;2611938;47;20435;-79
2022/01/27 09:53:48;;;;;;;25.90;18.60;;;5.60;99.90;;;;;;2612531;47;20403;-79
2022/01/27 09:56:13;;;;;;;15.60;11.60;;;5.60;99.90;;;;;;2612119;47;20432;-78
2022/01/27 09:58:41;;;;;;;21.77;12.23;;;5.50;99.90;;;;;;2612724;54;20428;-80
2022/01/27 10:01:07;;;;;;;33.23;17.90;;;5.60;99.90;;;;;;2612585;54;20940;-78
2022/01/27 10:03:33;;;;;;;32.50;20.33;;;5.60;99.90;;;;;;2612123;47;20415;-79
2022/01/27 10:06:14;;;;;;;26.57;15.10;;;5.70;99.90;;;;;;2612320;54;20150;-79
2022/01/27 10:08:41;;;;;;;27.43;18.30;;;5.70;99.90;;;;;;2611806;47;20466;-78
2022/01/27 10:11:18;;;;;;;21.47;13.30;;;5.70;99.90;;;;;;2612438;51;20547;-79
2022/01/27 10:13:46;;;;;;;42.83;20.00;;;5.70;99.90;;;;;;2612493;39;20898;-78
2022/01/27 10:16:41;;;;;;;38.30;18.00;;;5.70;99.90;;;;;;2612961;47;20411;-78
2022/01/27 10:19:08;;;;;;;24.03;17.80;;;5.80;99.90;;;;;;2612917;47;20427;-78
2022/01/27 10:21:36;;;;;;;29.07;15.83;;;5.70;99.90;;;;;;2612970;54;20432;-79
2022/01/27 10:24:19;;;;;;;26.47;11.50;;;5.80;99.90;;;;;;2613414;47;20427;-79
2022/01/27 10:26:53;;;;;;;24.57;16.70;;;5.80;99.90;;;;;;2613650;54;20391;-79
2022/01/27 10:29:37;;;;;;;37.83;20.73;;;5.80;99.90;;;;;;2613669;54;20427;-79
2022/01/27 10:32:06;;;;;;;20.33;12.07;;;5.80;99.90;;;;;;2614090;54;21043;-79
2022/01/27 10:34:58;;;;;;;13.17;9.53;;;5.80;99.90;;;;;;2613695;47;20436;-79
2022/01/27 10:37:24;;;;;;;24.77;14.27;;;5.90;99.90;;;;;;2614139;54;21110;-79
2022/01/27 10:39:51;;;;;;;28.83;14.77;;;5.90;99.90;;;;;;2613878;54;20395;-77
2022/01/27 10:42:21;;;;;;;35.87;20.20;;;5.90;99.90;;;;;;2614057;46;20423;-79
2022/01/27 10:44:55;;;;;;;34.90;19.80;;;6.00;99.90;;;;;;2614158;54;20432;-79
2022/01/27 10:47:27;;;;;;;24.47;16.47;;;6.00;99.90;;;;;;2614247;47;21006;-79
2022/01/27 10:50:01;;;;;;;21.93;14.60;;;6.00;99.90;;;;;;2614612;47;20458;-79
2022/01/27 10:55:07;;;;;;;28.87;18.07;;;6.10;99.90;;;;;;2614270;47;20415;-79
2022/01/27 10:57:33;;;;;;;33.20;16.83;;;6.10;99.90;;;;;;2614706;47;20518;-79
2022/01/27 11:00:07;;;;;;;21.40;11.20;;;6.10;99.90;;;;;;2614198;47;20988;-79
2022/01/27 11:02:46;;;;;;;29.37;16.50;;;6.10;99.90;;;;;;2614693;39;20575;-79
2022/01/27 11:05:21;;;;;;;22.73;14.17;;;6.10;99.90;;;;;;2614069;54;21105;-80
2022/01/27 11:07:47;;;;;;;24.90;15.03;;;6.10;99.90;;;;;;2614078;47;20435;-79
2022/01/27 11:10:15;;;;;;;21.53;16.17;;;6.10;99.90;;;;;;2613963;47;20485;-79
2022/01/27 11:12:43;;;;;;;27.37;16.57;;;6.10;99.90;;;;;;2613492;54;20451;-79
2022/01/27 11:15:13;;;;;;;35.90;14.97;;;6.10;99.90;;;;;;2614589;39;20959;-80
2022/01/27 11:17:41;;;;;;;14.50;10.10;;;6.20;99.90;;;;;;2614313;54;20435;-80
2022/01/27 11:22:58;;;;;;;18.77;12.03;;;6.20;99.90;;;;;;2614382;47;21006;-81
2022/01/27 11:28:00;;;;;;;21.20;12.97;;;6.20;99.90;;;;;;2615018;54;20431;-79
2022/01/27 11:30:51;;;;;;;27.70;15.53;;;6.20;99.90;;;;;;2614867;39;20875;-83
2022/01/27 11:33:18;;;;;;;18.73;12.57;;;6.30;99.90;;;;;;2614422;47;20431;-79
2022/01/27 11:35:44;;;;;;;24.17;15.53;;;6.20;99.90;;;;;;2614741;47;20431;-80
2022/01/27 11:38:11;;;;;;;19.27;13.23;;;6.20;99.90;;;;;;2615176;39;20708;-80
2022/01/27 11:40:46;;;;;;;13.93;8.70;;;6.30;99.90;;;;;;2614887;54;20434;-80
2022/01/27 11:43:15;;;;;;;17.77;12.93;;;6.30;99.90;;;;;;2614392;54;20391;-80
2022/01/27 11:45:52;;;;;;;26.63;15.80;;;6.30;99.90;;;;;;2613502;47;20440;-80
2022/01/27 11:48:26;;;;;;;12.73;9.97;;;6.40;99.90;;;;;;2614401;39;21921;-79
2022/01/27 11:51:13;;;;;;;14.33;9.93;;;6.40;99.90;;;;;;2613979;54;20395;-80
2022/01/27 11:53:49;;;;;;;16.80;10.07;;;6.40;99.90;;;;;;2613022;47;20966;-79
2022/01/27 11:56:23;;;;;;;17.53;11.07;;;6.50;99.90;;;;;;2631333;36;21035;-80
2022/01/27 11:58:56;;;;;;;16.33;11.80;;;6.50;99.90;;;;;;2613605;54;20391;-80
2022/01/27 12:01:31;;;;;;;17.40;11.43;;;6.50;99.90;;;;;;2612428;54;20491;-79
2022/01/27 12:04:06;;;;;;;27.67;14.80;;;6.50;99.90;;;;;;2613529;39;21118;-80
2022/01/27 12:06:35;;;;;;;23.93;16.33;;;6.50;99.90;;;;;;2612928;47;20423;-80
2022/01/27 12:09:22;;;;;;;33.60;19.43;;;6.60;99.90;;;;;;2613150;47;20427;-80
2022/01/27 12:11:52;;;;;;;26.10;17.50;;;6.60;99.90;;;;;;2614164;54;20454;-80
2022/01/27 12:14:23;;;;;;;26.57;17.83;;;6.60;99.90;;;;;;2612664;51;20451;-79
2022/01/27 12:17:16;;;;;;;12.87;10.00;;;6.60;99.90;;;;;;2613609;54;20463;-80
2022/01/27 12:19:52;;;;;;;12.33;8.80;;;6.60;99.90;;;;;;2612620;54;20431;-81
2022/01/27 12:22:19;;;;;;;23.17;11.47;;;6.70;99.90;;;;;;2613329;54;20411;-79
2022/01/27 12:25:05;;;;;;;21.70;13.60;;;6.60;99.90;;;;;;2613021;54;20423;-80
2022/01/27 12:27:32;;;;;;;13.40;10.67;;;6.60;99.90;;;;;;2612877;47;20411;-79
2022/01/27 12:30:00;;;;;;;28.83;15.60;;;6.60;99.90;;;;;;2612176;54;20442;-79
2022/01/27 12:32:31;;;;;;;20.00;15.47;;;6.70;99.90;;;;;;2612805;54;20566;-79
2022/01/27 12:34:57;;;;;;;18.57;12.50;;;6.70;99.90;;;;;;2614076;54;20442;-79
2022/01/27 12:37:38;;;;;;;28.93;14.30;;;6.70;99.90;;;;;;2612857;54;20581;-78
2022/01/27 12:40:15;;;;;;;18.83;14.43;;;6.70;99.90;;;;;;2612433;47;20474;-79
2022/01/27 12:42:56;;;;;;;21.43;15.37;;;6.80;99.90;;;;;;2612895;39;20800;-79
2022/01/27 12:45:27;;;;;;;19.23;12.93;;;6.80;99.90;;;;;;2613480;54;20980;-79
2022/01/27 12:47:54;;;;;;;20.83;15.77;;;6.80;99.90;;;;;;2612891;51;20430;-79
2022/01/27 12:50:23;;;;;;;22.07;14.50;;;6.80;99.90;;;;;;2612371;54;20430;-79
2022/01/27 12:52:53;;;;;;;26.80;20.03;;;6.90;99.90;;;;;;2613725;54;20403;-79
2022/01/27 12:55:22;;;;;;;19.43;11.67;;;6.90;99.90;;;;;;2612573;54;20411;-79
2022/01/27 12:58:01;;;;;;;23.40;14.57;;;6.90;99.90;;;;;;2612455;47;20434;-79
2022/01/27 13:00:28;;;;;;;10.10;7.33;;;6.90;99.90;;;;;;2612434;54;20446;-79
2022/01/27 13:03:01;;;;;;;25.57;17.13;;;6.80;99.90;;;;;;2612672;54;20406;-80
2022/01/27 13:05:38;;;;;;;28.30;18.37;;;6.90;99.90;;;;;;2611100;54;20546;-79
2022/01/27 13:08:09;;;;;;;15.37;11.77;;;7.00;99.90;;;;;;2611736;54;20419;-79
2022/01/27 13:10:36;;;;;;;23.90;17.50;;;7.00;99.90;;;;;;2610961;54;20439;-80
2022/01/27 13:13:15;;;;;;;25.80;19.60;;;7.00;99.90;;;;;;2612012;47;20451;-79
2022/01/27 13:15:43;;;;;;;26.40;18.30;;;7.00;99.90;;;;;;2612193;47;20905;-79
2022/01/27 13:18:16;;;;;;;20.00;13.83;;;7.00;99.90;;;;;;2611825;47;20422;-79
2022/01/27 13:20:50;;;;;;;29.13;18.40;;;7.00;99.90;;;;;;2611809;54;20411;-80
2022/01/27 13:25:57;;;;;;;25.30;16.47;;;7.00;99.90;;;;;;2611374;49;20432;-79
2022/01/27 13:28:27;;;;;;;21.60;14.60;;;7.00;99.90;;;;;;2611912;39;20832;-79
2022/01/27 13:30:55;;;;;;;25.83;16.90;;;7.00;99.90;;;;;;2610521;54;20412;-79
2022/01/27 13:33:23;;;;;;;25.67;17.40;;;7.00;99.90;;;;;;2612204;47;20431;-78
2022/01/27 13:35:51;;;;;;;19.63;12.43;;;7.00;99.90;;;;;;2611730;47;20421;-79
2022/01/27 13:43:40;;;;;;;19.30;13.60;;;7.10;99.90;;;;;;2614600;54;20474;-78
2022/01/27 13:46:08;;;;;;;23.67;16.20;;;7.10;99.90;;;;;;2613004;47;20428;-79
2022/01/27 13:48:46;;;;;;;22.37;16.00;;;7.20;99.90;;;;;;2612493;54;20427;-79
2022/01/27 13:51:23;;;;;;;20.57;15.63;;;7.20;99.90;;;;;;2612501;54;20435;-79
2022/01/27 13:54:04;;;;;;;28.80;17.17;;;7.20;99.90;;;;;;2613028;54;20422;-78
2022/01/27 13:56:47;;;;;;;23.10;16.43;;;7.20;99.90;;;;;;2612755;47;21031;-78
2022/01/27 13:59:17;;;;;;;28.50;15.50;;;7.30;99.90;;;;;;2612936;54;20949;-79